Time;durP1;ratioP1;P1;durP2;ratioP2;P2;SDS_P1;SDS_P2;PMS_P1;PMS_P2;Temp;Humidity;BMP_temperature;BMP_pressure;BME280_temperature;BME280_humidity;BME280_pressure;Samples;Min_cycle;Max_cycle;Signal;HPM_P1;HPM_P2
2022/10/15 00:01:18;;;;;;;32.88;20.05;;;13.90;99.90;;;;;;5013443;28;20203;-82
2022/10/15 00:03:45;;;;;;;21.37;17.73;;;13.90;99.90;;;;;;5013950;28;20203;-79
2022/10/15 00:06:16;;;;;;;24.25;16.75;;;13.90;99.90;;;;;;5013442;28;20223;-77
2022/10/15 00:08:43;;;;;;;22.23;16.10;;;13.90;99.90;;;;;;5013355;28;20203;-78
2022/10/15 00:11:12;;;;;;;21.65;15.38;;;13.90;99.90;;;;;;5023227;28;20302;-77
2022/10/15 00:13:40;;;;;;;22.97;16.80;;;13.90;99.90;;;;;;5031949;28;20277;-77
2022/10/15 00:16:09;;;;;;;26.05;18.05;;;13.80;99.90;;;;;;5028088;28;20295;-77
2022/10/15 00:18:36;;;;;;;25.53;18.47;;;13.80;99.90;;;;;;5012704;28;20199;-76
2022/10/15 00:21:06;;;;;;;21.67;14.87;;;13.80;99.90;;;;;;5011983;28;20250;-79
2022/10/15 00:23:34;;;;;;;23.10;16.90;;;13.80;99.90;;;;;;5012425;28;20207;-77
2022/10/15 00:26:03;;;;;;;21.87;17.00;;;13.80;99.90;;;;;;5012479;28;20213;-80
2022/10/15 00:28:30;;;;;;;28.23;17.73;;;13.80;99.90;;;;;;5013059;28;20210;-78
2022/10/15 00:31:01;;;;;;;23.43;18.00;;;13.80;99.90;;;;;;5019450;28;20206;-80
2022/10/15 00:33:28;;;;;;;26.40;17.87;;;13.80;99.90;;;;;;5023152;28;20203;-83
2022/10/15 00:36:02;;;;;;;25.67;18.07;;;13.80;99.90;;;;;;5012808;28;20533;-76
2022/10/15 00:38:29;;;;;;;25.67;19.67;;;13.80;99.90;;;;;;5011996;28;20589;-76
2022/10/15 00:40:58;;;;;;;27.63;18.57;;;13.80;99.90;;;;;;5011042;28;20643;-77
2022/10/15 00:43:45;;;;;;;31.60;21.23;;;13.80;99.90;;;;;;5011996;28;20202;-77
2022/10/15 00:46:22;;;;;;;36.43;24.03;;;13.80;99.90;;;;;;5012315;28;20215;-76
2022/10/15 00:48:53;;;;;;;33.57;23.67;;;13.80;99.90;;;;;;5011602;28;20200;-77
2022/10/15 00:51:20;;;;;;;29.47;22.43;;;13.80;99.90;;;;;;5012296;28;20254;-78
2022/10/15 00:53:48;;;;;;;37.33;24.50;;;13.90;99.90;;;;;;5026336;28;20206;-77
2022/10/15 00:56:19;;;;;;;39.43;23.97;;;13.90;99.90;;;;;;5030826;28;20214;-77
2022/10/15 00:58:47;;;;;;;35.43;24.90;;;13.90;99.90;;;;;;5030638;28;20569;-77
2022/10/15 01:01:14;;;;;;;41.33;25.07;;;13.90;99.90;;;;;;5031108;28;20198;-77
2022/10/15 01:03:42;;;;;;;37.97;26.67;;;14.00;99.90;;;;;;5014780;28;20203;-77
2022/10/15 01:06:09;;;;;;;35.60;24.97;;;14.00;99.90;;;;;;5012017;28;20662;-78
2022/10/15 01:08:36;;;;;;;33.97;23.70;;;14.00;99.90;;;;;;5011204;28;20211;-77
2022/10/15 01:11:17;;;;;;;34.53;23.80;;;14.00;99.90;;;;;;5029470;28;20199;-77
2022/10/15 01:13:53;;;;;;;34.35;24.27;;;14.00;99.90;;;;;;5031778;28;20281;-79
2022/10/15 01:16:28;;;;;;;35.10;24.47;;;14.00;99.90;;;;;;5027084;28;20210;-78
2022/10/15 01:19:01;;;;;;;40.60;25.13;;;14.00;99.90;;;;;;5011908;28;20242;-78
2022/10/15 01:21:34;;;;;;;35.13;25.17;;;13.90;99.90;;;;;;5011821;28;20207;-77
2022/10/15 01:24:44;;;;;;;37.13;24.80;;;13.90;99.90;;;;;;5013272;28;20211;-79
2022/10/15 01:27:35;;;;;;;39.70;25.60;;;13.90;99.90;;;;;;5032677;28;20183;-83
2022/10/15 01:30:22;;;;;;;32.87;23.80;;;14.00;99.90;;;;;;5017087;28;20203;-83
2022/10/15 01:33:05;;;;;;;35.45;24.20;;;13.90;99.90;;;;;;5017456;28;20199;-83
2022/10/15 01:35:41;;;;;;;41.80;26.70;;;13.90;99.90;;;;;;5017467;28;20211;-81
2022/10/15 01:38:19;;;;;;;40.70;26.10;;;13.90;99.90;;;;;;5017162;28;20279;-81
2022/10/15 01:40:50;;;;;;;36.25;25.15;;;13.90;99.90;;;;;;5017591;28;20342;-83
2022/10/15 01:43:24;;;;;;;44.80;27.60;;;13.90;99.90;;;;;;5016663;28;20207;-80
2022/10/15 01:45:57;;;;;;;41.80;26.37;;;14.00;99.90;;;;;;5017619;28;20218;-82
2022/10/15 01:48:27;;;;;;;38.20;25.70;;;14.00;99.90;;;;;;5017398;28;20197;-83
2022/10/15 01:50:58;;;;;;;42.05;27.13;;;14.00;99.90;;;;;;5017107;28;20699;-82
2022/10/15 01:53:26;;;;;;;37.27;25.30;;;14.00;99.90;;;;;;5018013;28;20496;-83
2022/10/15 01:55:57;;;;;;;40.53;25.77;;;14.00;99.90;;;;;;5019127;28;20219;-84
2022/10/15 01:58:25;;;;;;;40.57;24.80;;;14.00;99.90;;;;;;5036926;28;20194;-85
2022/10/15 02:00:57;;;;;;;34.40;20.73;;;14.10;99.90;;;;;;5025509;28;20207;-82
2022/10/15 02:03:24;;;;;;;27.20;17.10;;;14.10;99.90;;;;;;5016927;28;20199;-83
2022/10/15 02:05:56;;;;;;;21.17;14.80;;;14.10;99.90;;;;;;5016562;28;20258;-79
2022/10/15 02:08:32;;;;;;;23.23;15.63;;;14.10;99.90;;;;;;5016366;28;20610;-85
2022/10/15 02:11:04;;;;;;;24.38;15.98;;;14.10;99.90;;;;;;5017064;28;20664;-82
2022/10/15 02:13:41;;;;;;;21.55;13.60;;;14.10;99.90;;;;;;5016042;28;20203;-80
2022/10/15 02:16:13;;;;;;;19.33;10.67;;;14.10;99.90;;;;;;5034029;28;20603;-83
2022/10/15 02:18:45;;;;;;;11.98;8.10;;;14.10;99.90;;;;;;5036121;28;20490;-79
2022/10/15 02:21:16;;;;;;;10.87;6.30;;;14.10;99.90;;;;;;5031680;28;20235;-81
2022/10/15 02:23:48;;;;;;;7.77;4.67;;;14.10;99.90;;;;;;5016738;28;20278;-83
2022/10/15 02:26:16;;;;;;;8.27;4.45;;;14.20;99.90;;;;;;5015955;28;20203;-79
2022/10/15 02:28:50;;;;;;;12.82;6.32;;;14.20;99.90;;;;;;5016345;28;20227;-82
2022/10/15 02:31:20;;;;;;;14.43;8.20;;;14.20;99.90;;;;;;5016038;28;20611;-84
2022/10/15 02:33:48;;;;;;;23.13;14.00;;;14.20;99.90;;;;;;5015637;28;20659;-81
2022/10/15 02:36:15;;;;;;;30.97;19.80;;;14.20;99.90;;;;;;5016505;28;20207;-85
2022/10/15 02:38:45;;;;;;;32.13;21.30;;;14.10;99.90;;;;;;5016510;28;20335;-81
2022/10/15 02:41:13;;;;;;;34.00;21.83;;;14.10;99.90;;;;;;5014260;28;20326;-82
2022/10/15 02:43:41;;;;;;;37.73;23.80;;;14.00;99.90;;;;;;5016205;28;20595;-82
2022/10/15 02:46:10;;;;;;;36.53;24.77;;;14.00;99.90;;;;;;5016172;28;20223;-84
2022/10/15 02:48:38;;;;;;;32.57;22.27;;;14.00;99.90;;;;;;5015553;28;20504;-83
2022/10/15 02:51:06;;;;;;;41.00;25.70;;;14.00;99.90;;;;;;5015767;28;20501;-83
2022/10/15 02:53:33;;;;;;;35.10;23.77;;;13.90;99.90;;;;;;5016151;28;20217;-79
2022/10/15 02:56:00;;;;;;;42.97;27.87;;;13.90;99.90;;;;;;5014868;28;20401;-82
2022/10/15 02:58:28;;;;;;;37.23;24.93;;;13.90;99.90;;;;;;5014604;28;20203;-82
2022/10/15 03:00:55;;;;;;;46.17;28.93;;;13.90;99.90;;;;;;5014752;28;20199;-83
2022/10/15 03:03:22;;;;;;;40.10;27.10;;;14.00;99.90;;;;;;5014660;28;20607;-84
2022/10/15 03:05:50;;;;;;;42.43;27.67;;;13.90;99.90;;;;;;5014162;28;20219;-78
2022/10/15 03:08:17;;;;;;;42.08;26.35;;;13.90;99.90;;;;;;5014140;28;20210;-76
2022/10/15 03:10:45;;;;;;;41.10;27.43;;;13.90;99.90;;;;;;5013843;28;20199;-80
2022/10/15 03:13:12;;;;;;;38.73;26.30;;;13.80;99.90;;;;;;5014703;28;20208;-77
2022/10/15 03:15:39;;;;;;;45.77;27.93;;;13.80;99.90;;;;;;5015009;28;20204;-76
2022/10/15 03:18:07;;;;;;;38.85;27.98;;;13.80;99.90;;;;;;5013435;28;20195;-77
2022/10/15 03:20:33;;;;;;;39.47;27.40;;;13.80;99.90;;;;;;5013606;28;20593;-78
2022/10/15 03:23:02;;;;;;;35.87;25.60;;;13.70;99.90;;;;;;5013808;28;20215;-78
2022/10/15 03:25:28;;;;;;;36.87;26.10;;;13.70;99.90;;;;;;5013310;28;20226;-78
2022/10/15 03:27:55;;;;;;;37.73;25.80;;;13.70;99.90;;;;;;5013199;28;20211;-77
2022/10/15 03:30:22;;;;;;;42.93;28.97;;;13.70;99.90;;;;;;5012454;28;20207;-77
2022/10/15 03:32:49;;;;;;;40.30;26.20;;;13.70;99.90;;;;;;5013488;28;20207;-78
2022/10/15 03:35:16;;;;;;;38.97;28.00;;;13.70;99.90;;;;;;5013074;28;20632;-78
2022/10/15 03:37:43;;;;;;;45.33;29.77;;;13.70;99.90;;;;;;5012417;28;20531;-77
2022/10/15 03:40:12;;;;;;;46.80;31.07;;;13.70;99.90;;;;;;5012718;28;20203;-76
2022/10/15 03:42:39;;;;;;;42.27;28.83;;;13.70;99.90;;;;;;5013282;28;20214;-77
2022/10/15 03:45:07;;;;;;;42.70;28.67;;;13.70;99.90;;;;;;5012209;28;20497;-77
2022/10/15 03:47:34;;;;;;;43.17;30.60;;;13.70;99.90;;;;;;5013068;28;20225;-77
2022/10/15 03:50:01;;;;;;;42.33;28.20;;;13.60;99.90;;;;;;5012666;28;20213;-77
2022/10/15 03:52:28;;;;;;;41.90;26.70;;;13.60;99.90;;;;;;5012769;28;20196;-77
2022/10/15 03:54:55;;;;;;;48.65;34.25;;;13.60;99.90;;;;;;5013024;28;20646;-77
2022/10/15 03:57:23;;;;;;;45.67;30.97;;;13.60;99.90;;;;;;5023506;28;20313;-77
2022/10/15 03:59:50;;;;;;;43.17;31.00;;;13.60;99.90;;;;;;5032855;28;20198;-75
2022/10/15 04:02:16;;;;;;;46.63;31.20;;;13.60;99.90;;;;;;5032726;28;20202;-77
2022/10/15 04:04:43;;;;;;;52.73;36.27;;;13.50;99.90;;;;;;5024712;28;20204;-78
2022/10/15 04:07:10;;;;;;;49.23;33.13;;;13.50;99.90;;;;;;5012863;28;20552;-78
2022/10/15 04:09:37;;;;;;;48.47;32.10;;;13.50;99.90;;;;;;5013021;28;20203;-77
2022/10/15 04:12:04;;;;;;;44.80;31.38;;;13.50;99.90;;;;;;5012231;28;20222;-77
2022/10/15 04:14:32;;;;;;;48.63;32.37;;;13.50;99.90;;;;;;5013060;28;20195;-80
2022/10/15 04:16:59;;;;;;;51.35;33.42;;;13.50;99.90;;;;;;5013266;28;20191;-83
2022/10/15 04:19:26;;;;;;;48.43;32.97;;;13.50;99.90;;;;;;5012827;28;20286;-79
2022/10/15 04:21:53;;;;;;;50.50;33.87;;;13.50;99.90;;;;;;5012185;28;20207;-77
2022/10/15 04:24:19;;;;;;;51.83;32.97;;;13.50;99.90;;;;;;5012880;28;20200;-77
2022/10/15 04:26:46;;;;;;;47.70;32.17;;;13.50;99.90;;;;;;5011585;28;20237;-78
2022/10/15 04:29:13;;;;;;;45.57;29.97;;;13.50;99.90;;;;;;5012236;28;20214;-79
2022/10/15 04:31:41;;;;;;;46.27;31.40;;;13.60;99.90;;;;;;5014645;28;20214;-84
2022/10/15 04:34:09;;;;;;;44.27;30.10;;;13.60;99.90;;;;;;5014703;28;20498;-85
2022/10/15 04:36:36;;;;;;;43.10;30.93;;;13.60;99.90;;;;;;5014170;28;20205;-83
2022/10/15 04:39:03;;;;;;;40.77;28.13;;;13.60;99.90;;;;;;5014774;28;20211;-83
2022/10/15 04:41:30;;;;;;;52.37;33.03;;;13.60;99.90;;;;;;5014021;28;20231;-84
2022/10/15 04:43:57;;;;;;;45.87;29.90;;;13.60;99.90;;;;;;5013594;28;20599;-84
2022/10/15 04:46:25;;;;;;;41.80;28.57;;;13.60;99.90;;;;;;5013713;28;20281;-82
2022/10/15 04:48:56;;;;;;;38.60;25.97;;;13.60;99.90;;;;;;5024436;28;20198;-82
2022/10/15 04:51:24;;;;;;;50.47;30.23;;;13.60;99.90;;;;;;5034156;28;20186;-84
2022/10/15 04:53:51;;;;;;;46.00;30.33;;;13.60;99.90;;;;;;5033402;28;20621;-84
2022/10/15 04:56:19;;;;;;;41.30;28.63;;;13.60;99.90;;;;;;5033947;28;20284;-81
2022/10/15 04:58:48;;;;;;;41.30;27.23;;;13.60;99.90;;;;;;5026412;28;20211;-84
2022/10/15 05:01:17;;;;;;;41.30;28.77;;;13.70;99.90;;;;;;5013886;28;20318;-78
2022/10/15 05:03:46;;;;;;;42.93;29.13;;;13.70;99.90;;;;;;5013825;28;20289;-82
2022/10/15 05:06:16;;;;;;;51.47;32.90;;;13.70;99.90;;;;;;5016920;28;20226;-82
2022/10/15 05:08:43;;;;;;;54.63;34.47;;;13.70;99.90;;;;;;5017996;28;20207;-83
2022/10/15 05:11:12;;;;;;;56.50;35.47;;;13.70;99.90;;;;;;5017840;28;20210;-79
2022/10/15 05:13:39;;;;;;;60.67;36.40;;;13.70;99.90;;;;;;5017621;28;20278;-83
2022/10/15 05:16:11;;;;;;;54.77;35.77;;;13.60;99.90;;;;;;5017236;28;20195;-81
2022/10/15 05:18:38;;;;;;;60.23;36.53;;;13.60;99.90;;;;;;5018033;28;20192;-83
2022/10/15 05:21:05;;;;;;;51.20;34.60;;;13.60;99.90;;;;;;5018328;28;20207;-82
2022/10/15 05:23:34;;;;;;;51.75;33.65;;;13.60;99.90;;;;;;5017129;28;20207;-82
2022/10/15 05:26:02;;;;;;;48.43;31.67;;;13.60;99.90;;;;;;5017254;28;20506;-82
2022/10/15 05:28:29;;;;;;;54.07;33.50;;;13.70;99.90;;;;;;5075340;22;20702;-81
2022/10/15 05:30:56;;;;;;;49.83;32.00;;;13.70;99.90;;;;;;5056761;28;20201;-79
2022/10/15 05:33:23;;;;;;;52.03;34.45;;;13.70;99.90;;;;;;5056895;28;20259;-80
2022/10/15 05:35:50;;;;;;;50.67;32.90;;;13.70;99.90;;;;;;5056202;28;20234;-81
2022/10/15 05:38:17;;;;;;;56.30;35.67;;;13.70;99.90;;;;;;5056694;28;20205;-82
2022/10/15 05:40:49;;;;;;;61.57;36.13;;;13.70;99.90;;;;;;5055897;28;20212;-83
2022/10/15 05:43:16;;;;;;;60.83;35.87;;;13.70;99.90;;;;;;5055240;28;20213;-78
2022/10/15 05:45:43;;;;;;;55.43;37.53;;;13.70;99.90;;;;;;5056338;28;20194;-81
2022/10/15 05:48:10;;;;;;;60.40;36.75;;;13.70;99.90;;;;;;5056651;28;20641;-78
2022/10/15 05:50:36;;;;;;;59.15;37.03;;;13.70;99.90;;;;;;5055874;28;20202;-80
2022/10/15 05:53:03;;;;;;;58.00;34.83;;;13.70;99.90;;;;;;5056090;28;20202;-82
2022/10/15 05:55:30;;;;;;;56.63;36.33;;;13.70;99.90;;;;;;5055994;28;20513;-80
2022/10/15 05:58:03;;;;;;;52.87;34.33;;;13.70;99.90;;;;;;5056612;28;20198;-82
2022/10/15 06:00:30;;;;;;;54.73;36.50;;;13.70;99.90;;;;;;5075543;28;20200;-86
2022/10/15 06:02:57;;;;;;;60.30;39.37;;;13.70;99.90;;;;;;5075305;28;20212;-79
2022/10/15 06:05:24;;;;;;;57.63;35.97;;;13.70;99.90;;;;;;5073812;28;20197;-85
2022/10/15 06:07:51;;;;;;;63.87;39.50;;;13.70;99.90;;;;;;5075830;28;20239;-83
2022/10/15 06:10:18;;;;;;;59.40;38.00;;;13.70;99.90;;;;;;5067713;28;20202;-84
2022/10/15 06:12:49;;;;;;;60.53;39.33;;;13.70;99.90;;;;;;5055449;28;20197;-85
2022/10/15 06:15:18;;;;;;;54.93;36.90;;;13.70;99.90;;;;;;5075401;28;20297;-84
2022/10/15 06:17:44;;;;;;;54.73;36.07;;;13.70;99.90;;;;;;5068912;28;20646;-84
2022/10/15 06:20:12;;;;;;;60.33;38.40;;;13.70;99.90;;;;;;5056393;28;20197;-82
2022/10/15 06:22:39;;;;;;;59.07;39.90;;;13.70;99.90;;;;;;5056550;28;20216;-84
2022/10/15 06:25:07;;;;;;;55.43;35.77;;;13.60;99.90;;;;;;5056469;28;20293;-85
2022/10/15 06:27:34;;;;;;;58.00;38.23;;;13.60;99.90;;;;;;5055792;28;20234;-80
2022/10/15 06:30:01;;;;;;;55.17;36.47;;;13.60;99.90;;;;;;5056782;28;20198;-83
2022/10/15 06:32:29;;;;;;;58.77;38.63;;;13.50;99.90;;;;;;5055791;28;20790;-79
2022/10/15 06:34:56;;;;;;;68.37;41.10;;;13.50;99.90;;;;;;5055997;28;20507;-79
2022/10/15 06:37:23;;;;;;;65.43;40.60;;;13.50;99.90;;;;;;5056071;28;20205;-82
2022/10/15 06:39:50;;;;;;;60.93;39.27;;;13.40;99.90;;;;;;5055469;28;20633;-85
2022/10/15 06:42:17;;;;;;;68.13;41.80;;;13.40;99.90;;;;;;5056051;28;20209;-84
2022/10/15 06:44:43;;;;;;;60.10;38.80;;;13.30;99.90;;;;;;5065922;28;20208;-85
2022/10/15 06:47:10;;;;;;;50.13;34.07;;;13.30;99.90;;;;;;5075537;28;20217;-87
2022/10/15 06:49:38;;;;;;;53.47;35.33;;;13.30;99.90;;;;;;5076320;28;20231;-83
2022/10/15 06:52:05;;;;;;;71.30;42.47;;;13.30;99.90;;;;;;5070822;28;20777;-85
2022/10/15 06:54:32;;;;;;;59.70;37.63;;;13.30;99.90;;;;;;5055487;28;20202;-84
2022/10/15 06:56:59;;;;;;;58.10;38.63;;;13.30;99.90;;;;;;5055725;28;20301;-82
2022/10/15 06:59:26;;;;;;;53.63;35.90;;;13.40;99.90;;;;;;5055359;28;20273;-84
2022/10/15 07:01:53;;;;;;;57.40;37.03;;;13.40;99.90;;;;;;5054593;28;20593;-83
2022/10/15 07:04:19;;;;;;;67.63;41.07;;;13.40;99.90;;;;;;5054390;28;20200;-83
2022/10/15 07:06:48;;;;;;;66.83;39.70;;;13.40;99.90;;;;;;5054126;28;20217;-83
2022/10/15 07:09:14;;;;;;;71.10;42.38;;;13.40;99.90;;;;;;5053398;28;20212;-78
2022/10/15 07:11:41;;;;;;;62.80;40.27;;;13.40;99.90;;;;;;5058086;28;20213;-77
2022/10/15 07:14:08;;;;;;;63.03;39.13;;;13.40;99.90;;;;;;5070989;28;20284;-78
2022/10/15 07:16:36;;;;;;;70.83;43.07;;;13.50;99.90;;;;;;5072466;28;20201;-77
2022/10/15 07:19:03;;;;;;;64.10;40.73;;;13.50;99.90;;;;;;5072497;28;20202;-77
2022/10/15 07:21:30;;;;;;;69.07;41.83;;;13.50;99.90;;;;;;5070370;28;20204;-77
2022/10/15 07:23:59;;;;;;;62.57;39.47;;;13.50;99.90;;;;;;5072534;28;20204;-77
2022/10/15 07:26:28;;;;;;;71.27;42.13;;;13.50;99.90;;;;;;5071470;28;20236;-77
2022/10/15 07:28:55;;;;;;;75.33;46.13;;;13.60;99.90;;;;;;5070543;28;20224;-80
2022/10/15 07:31:22;;;;;;;77.27;46.13;;;13.60;99.90;;;;;;5053008;28;20194;-78
2022/10/15 07:33:48;;;;;;;78.73;46.27;;;13.60;99.90;;;;;;5053991;28;20221;-81
2022/10/15 07:36:15;;;;;;;76.30;48.10;;;13.60;99.90;;;;;;5059659;28;20197;-85
2022/10/15 07:38:43;;;;;;;79.07;47.17;;;13.70;99.90;;;;;;5075098;28;20247;-79
2022/10/15 07:41:11;;;;;;;82.03;47.33;;;13.70;99.90;;;;;;5065829;28;20210;-81
2022/10/15 07:43:38;;;;;;;84.43;49.70;;;13.80;99.90;;;;;;5054199;28;20202;-82
2022/10/15 07:46:05;;;;;;;74.77;46.63;;;13.80;99.90;;;;;;5054403;28;20205;-79
2022/10/15 07:48:33;;;;;;;76.03;45.13;;;13.80;99.90;;;;;;5063766;28;20229;-83
2022/10/15 07:51:02;;;;;;;80.10;46.87;;;13.80;99.90;;;;;;5071439;28;20193;-83
2022/10/15 07:53:30;;;;;;;76.93;46.87;;;13.90;99.90;;;;;;5054339;28;20201;-82
2022/10/15 07:55:59;;;;;;;75.10;45.70;;;13.90;99.90;;;;;;5053799;28;20305;-84
2022/10/15 07:58:29;;;;;;;78.93;46.83;;;13.90;99.90;;;;;;5054032;28;20197;-81
2022/10/15 08:00:56;;;;;;;78.63;47.10;;;13.90;99.90;;;;;;5053766;28;20202;-78
2022/10/15 08:03:23;;;;;;;72.87;44.73;;;14.00;99.90;;;;;;5053117;28;20221;-83
2022/10/15 08:05:52;;;;;;;68.25;42.53;;;13.90;99.90;;;;;;5053709;28;20500;-79
2022/10/15 08:08:19;;;;;;;71.13;42.23;;;14.00;99.90;;;;;;5058458;28;20217;-82
2022/10/15 08:10:46;;;;;;;66.03;42.17;;;14.00;99.90;;;;;;5073810;28;20204;-81
2022/10/15 08:13:12;;;;;;;66.33;41.90;;;14.00;99.90;;;;;;5072078;28;20236;-79
2022/10/15 08:15:41;;;;;;;60.53;38.63;;;14.00;99.90;;;;;;5073205;28;20201;-83
2022/10/15 08:18:09;;;;;;;62.83;39.53;;;14.00;99.90;;;;;;5072545;28;20199;-80
2022/10/15 08:20:37;;;;;;;53.90;37.50;;;14.00;99.90;;;;;;5073458;28;20201;-81
2022/10/15 08:23:03;;;;;;;58.37;37.77;;;14.00;99.90;;;;;;5072955;28;20230;-80
2022/10/15 08:25:31;;;;;;;54.33;34.67;;;14.00;99.90;;;;;;5073177;28;20197;-86
2022/10/15 08:27:58;;;;;;;56.10;34.33;;;14.00;99.90;;;;;;5053913;28;20587;-81
2022/10/15 08:30:25;;;;;;;63.13;37.00;;;14.10;99.90;;;;;;5053140;28;20643;-78
2022/10/15 08:32:53;;;;;;;53.97;34.90;;;14.10;99.90;;;;;;5052891;28;20205;-81
2022/10/15 08:35:21;;;;;;;59.57;36.00;;;14.10;99.90;;;;;;5052734;28;20201;-82
2022/10/15 08:37:48;;;;;;;58.72;35.97;;;14.10;99.90;;;;;;5053040;28;20190;-83
2022/10/15 08:40:15;;;;;;;56.30;34.23;;;14.20;99.90;;;;;;5072607;28;20201;-81
2022/10/15 08:42:46;;;;;;;54.70;34.03;;;14.20;99.90;;;;;;5072855;28;20189;-81
2022/10/15 08:45:16;;;;;;;60.08;34.30;;;14.20;99.90;;;;;;5069722;28;20205;-77
2022/10/15 08:47:46;;;;;;;49.95;31.75;;;14.20;99.90;;;;;;5073242;28;20247;-76
2022/10/15 08:50:26;;;;;;;49.72;32.80;;;14.20;99.90;;;;;;5064749;28;20586;-82
2022/10/15 08:52:55;;;;;;;51.33;31.07;;;14.20;99.90;;;;;;5068290;28;20624;-82
2022/10/15 08:55:23;;;;;;;51.63;30.50;;;14.20;99.90;;;;;;5057897;28;20201;-80
2022/10/15 08:57:56;;;;;;;53.55;31.98;;;14.30;99.90;;;;;;5072816;28;20231;-81
2022/10/15 09:00:26;;;;;;;46.72;30.05;;;14.20;99.90;;;;;;5065388;28;20285;-80
2022/10/15 09:03:00;;;;;;;49.22;29.02;;;14.20;99.90;;;;;;5051557;28;20275;-80
2022/10/15 09:05:40;;;;;;;42.20;28.83;;;14.30;99.90;;;;;;5072069;28;20600;-83
2022/10/15 09:08:18;;;;;;;46.37;30.50;;;14.30;99.90;;;;;;5053953;28;20229;-79
2022/10/15 09:10:49;;;;;;;43.50;28.95;;;14.30;99.90;;;;;;5052393;28;20194;-82
2022/10/15 09:13:22;;;;;;;45.63;29.80;;;14.40;99.90;;;;;;5053598;28;20668;-84
2022/10/15 09:15:53;;;;;;;46.28;28.70;;;14.40;99.90;;;;;;5053216;28;20204;-83
2022/10/15 09:18:23;;;;;;;44.03;28.73;;;14.50;99.90;;;;;;5053071;28;20194;-80
2022/10/15 09:20:53;;;;;;;41.60;26.75;;;14.50;99.90;;;;;;5053045;28;20247;-80
2022/10/15 09:23:22;;;;;;;46.50;27.45;;;14.50;99.90;;;;;;5053461;28;20198;-83
2022/10/15 09:25:56;;;;;;;51.63;29.35;;;14.50;99.90;;;;;;5053064;28;20190;-82
2022/10/15 09:28:28;;;;;;;45.73;27.57;;;14.50;99.90;;;;;;5052477;28;20233;-83
2022/10/15 09:30:57;;;;;;;46.37;28.70;;;14.50;99.90;;;;;;5053696;28;20544;-86
2022/10/15 09:33:35;;;;;;;48.20;29.65;;;14.60;99.90;;;;;;5070031;28;20205;-79
2022/10/15 09:36:15;;;;;;;57.22;32.20;;;14.60;99.90;;;;;;5072768;28;20203;-84
2022/10/15 09:38:52;;;;;;;55.78;31.38;;;14.50;99.90;;;;;;5068261;28;20190;-80
2022/10/15 09:41:29;;;;;;;65.00;36.17;;;14.60;99.90;;;;;;5051790;28;20200;-82
2022/10/15 09:44:00;;;;;;;69.82;37.53;;;14.60;99.90;;;;;;5052432;28;20223;-78
2022/10/15 09:46:27;;;;;;;61.53;35.95;;;14.60;99.90;;;;;;5051088;28;20198;-75
2022/10/15 09:49:02;;;;;;;61.35;35.05;;;14.60;99.90;;;;;;5051179;28;20210;-77
2022/10/15 09:51:35;;;;;;;59.65;32.40;;;14.60;99.90;;;;;;5054150;28;20201;-76
2022/10/15 09:54:10;;;;;;;65.10;34.55;;;14.60;99.90;;;;;;5055051;28;20792;-77
2022/10/15 09:56:39;;;;;;;53.75;33.00;;;14.70;99.90;;;;;;5054548;28;20513;-76
2022/10/15 09:59:06;;;;;;;60.22;34.42;;;14.70;99.90;;;;;;5054907;28;20214;-76
2022/10/15 10:01:33;;;;;;;59.08;34.67;;;14.80;99.90;;;;;;5055062;28;20205;-76
2022/10/15 10:04:12;;;;;;;53.30;32.42;;;14.80;99.90;;;;;;5054583;28;20198;-76
2022/10/15 10:06:50;;;;;;;49.33;32.78;;;14.90;99.90;;;;;;5055252;28;20202;-79
2022/10/15 10:09:20;;;;;;;52.42;33.13;;;14.90;99.90;;;;;;5054827;28;20300;-77
2022/10/15 10:11:50;;;;;;;47.05;29.77;;;14.90;99.90;;;;;;5054468;28;20648;-76
2022/10/15 10:14:24;;;;;;;44.85;30.55;;;14.90;99.90;;;;;;5054494;28;20292;-77
2022/10/15 10:17:16;;;;;;;45.63;31.35;;;15.00;99.90;;;;;;5054078;28;20206;-77
2022/10/15 10:19:43;;;;;;;45.10;30.90;;;15.00;99.90;;;;;;5054382;28;20201;-76
2022/10/15 10:22:17;;;;;;;43.30;31.30;;;15.10;99.90;;;;;;5054881;28;20209;-76
2022/10/15 10:24:45;;;;;;;41.03;30.50;;;15.10;99.90;;;;;;5053951;28;20198;-76
2022/10/15 10:27:20;;;;;;;41.58;31.95;;;15.10;99.90;;;;;;5053858;28;20321;-77
2022/10/15 10:29:55;;;;;;;40.13;30.58;;;15.20;99.90;;;;;;5054531;28;20209;-76
2022/10/15 10:32:26;;;;;;;38.20;29.23;;;15.20;99.90;;;;;;5053857;28;20225;-77
2022/10/15 10:34:54;;;;;;;35.45;29.45;;;15.30;99.90;;;;;;5054376;28;20285;-77
2022/10/15 10:37:24;;;;;;;34.95;29.20;;;15.40;99.90;;;;;;5055129;28;20502;-77
2022/10/15 10:39:55;;;;;;;33.38;27.52;;;15.50;99.90;;;;;;5054293;28;20692;-78
2022/10/15 10:42:37;;;;;;;33.10;27.85;;;15.60;99.90;;;;;;5054395;28;20634;-76
2022/10/15 10:45:23;;;;;;;33.85;28.73;;;15.60;99.90;;;;;;5054611;28;20461;-78
2022/10/15 10:47:50;;;;;;;30.40;27.15;;;15.60;99.90;;;;;;5054799;28;20206;-79
2022/10/15 10:50:30;;;;;;;28.50;24.67;;;15.60;99.90;;;;;;5054131;28;20232;-76
2022/10/15 10:53:19;;;;;;;27.65;24.70;;;15.60;99.90;;;;;;5053431;28;20198;-77
2022/10/15 10:55:47;;;;;;;23.55;21.05;;;15.60;99.90;;;;;;5053104;28;20236;-76
2022/10/15 10:58:19;;;;;;;22.48;19.95;;;15.60;99.90;;;;;;5053598;28;20559;-76
2022/10/15 11:00:48;;;;;;;22.15;19.85;;;15.70;99.90;;;;;;5053242;28;20217;-76
2022/10/15 11:03:25;;;;;;;20.95;18.75;;;15.70;99.90;;;;;;5052541;28;20212;-77
2022/10/15 11:05:59;;;;;;;21.02;18.75;;;15.70;99.90;;;;;;5054083;28;20196;-77
2022/10/15 11:08:37;;;;;;;19.10;17.10;;;15.70;99.90;;;;;;5061193;28;20214;-77
2022/10/15 11:11:11;;;;;;;19.42;16.60;;;15.70;99.90;;;;;;5073982;28;20585;-76
2022/10/15 11:13:54;;;;;;;16.92;15.23;;;15.60;99.90;;;;;;5064375;28;20225;-77
2022/10/15 11:16:28;;;;;;;15.38;13.80;;;15.60;99.90;;;;;;5054543;28;20198;-81
2022/10/15 11:19:06;;;;;;;14.95;13.30;;;15.60;99.90;;;;;;5071247;28;20219;-78
2022/10/15 11:21:48;;;;;;;17.15;12.93;;;15.60;99.90;;;;;;5074355;28;20281;-81
2022/10/15 11:24:24;;;;;;;13.52;12.15;;;15.50;99.90;;;;;;5073024;28;20762;-78
2022/10/15 11:27:12;;;;;;;11.45;10.25;;;15.50;99.90;;;;;;5054243;28;20241;-79
2022/10/15 11:29:47;;;;;;;13.48;12.07;;;15.50;99.90;;;;;;5036702;28;20241;-84
2022/10/15 11:32:26;;;;;;;11.95;10.75;;;15.60;99.90;;;;;;5054298;28;20681;-79
2022/10/15 11:35:09;;;;;;;11.48;10.27;;;15.60;99.90;;;;;;5053712;28;20487;-80
2022/10/15 11:37:46;;;;;;;11.25;10.15;;;15.60;99.90;;;;;;5053452;28;20681;-82
2022/10/15 11:40:21;;;;;;;12.68;11.38;;;15.60;99.90;;;;;;5066411;28;20224;-78
2022/10/15 11:42:55;;;;;;;10.82;9.73;;;15.60;99.90;;;;;;5053247;28;20598;-80
2022/10/15 11:45:47;;;;;;;10.10;9.10;;;15.60;99.90;;;;;;5053463;28;20582;-83
2022/10/15 11:48:24;;;;;;;10.00;9.10;;;15.70;99.90;;;;;;5052111;28;20304;-79
2022/10/15 11:50:56;;;;;;;9.50;8.65;;;15.70;99.90;;;;;;5053066;28;20523;-77
2022/10/15 11:53:51;;;;;;;8.60;7.70;;;15.70;99.90;;;;;;5052882;28;20202;-83
2022/10/15 11:56:23;;;;;;;8.32;7.57;;;15.70;99.90;;;;;;5052916;28;20621;-78
2022/10/15 11:58:54;;;;;;;7.78;6.78;;;15.70;99.90;;;;;;5053140;28;20198;-84
2022/10/15 12:01:27;;;;;;;7.47;6.82;;;15.80;99.90;;;;;;5053140;28;20190;-78
2022/10/15 12:03:56;;;;;;;8.10;7.40;;;15.80;99.90;;;;;;5052135;28;20476;-78
2022/10/15 12:06:28;;;;;;;7.07;6.28;;;15.80;99.90;;;;;;5052963;28;20202;-85
2022/10/15 12:08:57;;;;;;;6.18;5.65;;;15.80;99.90;;;;;;5067068;28;20232;-85
2022/10/15 12:11:38;;;;;;;4.82;4.45;;;15.80;99.90;;;;;;5073317;28;20212;-84
2022/10/15 12:14:13;;;;;;;4.82;4.43;;;15.80;99.90;;;;;;5073848;28;20211;-86
2022/10/15 12:16:46;;;;;;;4.35;4.05;;;15.80;99.90;;;;;;5052503;28;20304;-83
2022/10/15 12:19:16;;;;;;;4.70;3.80;;;15.80;99.90;;;;;;5053504;28;20190;-81
2022/10/15 12:22:05;;;;;;;5.32;4.07;;;15.80;99.90;;;;;;5053366;28;20204;-79
2022/10/15 12:24:53;;;;;;;3.60;3.10;;;15.90;99.90;;;;;;5052486;28;20202;-81
2022/10/15 12:27:34;;;;;;;2.63;2.42;;;15.90;99.90;;;;;;5058314;28;20239;-82
2022/10/15 12:30:25;;;;;;;2.85;2.60;;;15.90;99.90;;;;;;5073238;28;20225;-82
2022/10/15 12:32:52;;;;;;;2.90;2.70;;;15.90;99.90;;;;;;5073757;28;20212;-88
2022/10/15 12:35:23;;;;;;;2.97;2.78;;;15.90;99.90;;;;;;5073507;28;20201;-81
2022/10/15 12:37:51;;;;;;;3.22;2.92;;;15.90;99.90;;;;;;5073671;28;20189;-84
2022/10/15 12:40:28;;;;;;;3.17;2.92;;;15.90;99.90;;;;;;5073674;28;20201;-87
2022/10/15 12:42:57;;;;;;;3.42;3.10;;;16.00;99.90;;;;;;5060425;28;20249;-88
2022/10/15 12:45:28;;;;;;;3.45;3.15;;;16.00;99.90;;;;;;5053420;28;20202;-77